sensor_id;sensor_type;location;lat;lon;timestamp;P1;durP1;ratioP1;P2;durP2;ratioP2
38853;SDS011;24606;51.992;4.198;2022-08-06T00:02:45;1.17;;;0.30;;
38853;SDS011;24606;51.992;4.198;2022-08-06T00:07:47;2.10;;;0.45;;
38853;SDS011;24606;51.992;4.198;2022-08-06T00:12:49;1.15;;;0.43;;
38853;SDS011;24606;51.992;4.198;2022-08-06T00:17:52;1.58;;;0.32;;
38853;SDS011;24606;51.992;4.198;2022-08-06T00:22:54;0.40;;;0.20;;
38853;SDS011;24606;51.992;4.198;2022-08-06T00:27:56;2.60;;;0.47;;
38853;SDS011;24606;51.992;4.198;2022-08-06T00:32:59;0.20;;;0.10;;
38853;SDS011;24606;51.992;4.198;2022-08-06T00:38:01;1.95;;;0.45;;
38853;SDS011;24606;51.992;4.198;2022-08-06T00:43:03;0.75;;;0.40;;
38853;SDS011;24606;51.992;4.198;2022-08-06T00:48:08;0.82;;;0.40;;
38853;SDS011;24606;51.992;4.198;2022-08-06T00:53:10;0.47;;;0.22;;
38853;SDS011;24606;51.992;4.198;2022-08-06T00:58:12;2.25;;;0.30;;
38853;SDS011;24606;51.992;4.198;2022-08-06T01:03:15;0.88;;;0.20;;
38853;SDS011;24606;51.992;4.198;2022-08-06T01:08:17;1.42;;;0.47;;
38853;SDS011;24606;51.992;4.198;2022-08-06T01:13:19;1.85;;;0.32;;
38853;SDS011;24606;51.992;4.198;2022-08-06T01:18:23;1.17;;;0.35;;
38853;SDS011;24606;51.992;4.198;2022-08-06T01:23:34;0.40;;;0.22;;
38853;SDS011;24606;51.992;4.198;2022-08-06T01:28:47;1.20;;;0.40;;
38853;SDS011;24606;51.992;4.198;2022-08-06T01:33:59;1.25;;;0.50;;
38853;SDS011;24606;51.992;4.198;2022-08-06T01:39:01;0.75;;;0.22;;
38853;SDS011;24606;51.992;4.198;2022-08-06T01:44:05;4.45;;;0.70;;
38853;SDS011;24606;51.992;4.198;2022-08-06T01:49:09;0.35;;;0.25;;
38853;SDS011;24606;51.992;4.198;2022-08-06T01:54:12;0.75;;;0.30;;
38853;SDS011;24606;51.992;4.198;2022-08-06T01:59:16;0.73;;;0.30;;
38853;SDS011;24606;51.992;4.198;2022-08-06T02:04:26;1.60;;;0.30;;
38853;SDS011;24606;51.992;4.198;2022-08-06T02:09:30;1.63;;;0.40;;
38853;SDS011;24606;51.992;4.198;2022-08-06T02:14:37;1.25;;;0.50;;
38853;SDS011;24606;51.992;4.198;2022-08-06T02:19:44;0.32;;;0.30;;
38853;SDS011;24606;51.992;4.198;2022-08-06T02:24:48;0.88;;;0.25;;
38853;SDS011;24606;51.992;4.198;2022-08-06T02:29:51;2.35;;;0.38;;
38853;SDS011;24606;51.992;4.198;2022-08-06T02:34:56;0.47;;;0.13;;
38853;SDS011;24606;51.992;4.198;2022-08-06T02:39:59;0.63;;;0.20;;
38853;SDS011;24606;51.992;4.198;2022-08-06T02:45:08;2.13;;;0.20;;
38853;SDS011;24606;51.992;4.198;2022-08-06T02:50:17;0.88;;;0.20;;
38853;SDS011;24606;51.992;4.198;2022-08-06T02:55:21;0.40;;;0.13;;
38853;SDS011;24606;51.992;4.198;2022-08-06T03:00:28;0.80;;;0.25;;
38853;SDS011;24606;51.992;4.198;2022-08-06T03:05:34;0.22;;;0.10;;
38853;SDS011;24606;51.992;4.198;2022-08-06T03:10:37;0.40;;;0.10;;
38853;SDS011;24606;51.992;4.198;2022-08-06T03:15:41;1.05;;;0.32;;
38853;SDS011;24606;51.992;4.198;2022-08-06T03:20:44;1.75;;;0.30;;
38853;SDS011;24606;51.992;4.198;2022-08-06T03:25:46;0.28;;;0.10;;
38853;SDS011;24606;51.992;4.198;2022-08-06T03:30:52;1.70;;;0.25;;
38853;SDS011;24606;51.992;4.198;2022-08-06T03:35:55;1.33;;;0.10;;
38853;SDS011;24606;51.992;4.198;2022-08-06T03:40:59;0.70;;;0.20;;
38853;SDS011;24606;51.992;4.198;2022-08-06T03:46:03;0.63;;;0.10;;
38853;SDS011;24606;51.992;4.198;2022-08-06T03:51:09;1.58;;;0.20;;
38853;SDS011;24606;51.992;4.198;2022-08-06T03:56:15;3.75;;;0.38;;
38853;SDS011;24606;51.992;4.198;2022-08-06T04:01:22;3.42;;;0.30;;
38853;SDS011;24606;51.992;4.198;2022-08-06T04:06:26;0.80;;;0.28;;
38853;SDS011;24606;51.992;4.198;2022-08-06T04:11:30;0.22;;;0.20;;
38853;SDS011;24606;51.992;4.198;2022-08-06T04:16:35;1.08;;;0.30;;
38853;SDS011;24606;51.992;4.198;2022-08-06T04:21:40;0.22;;;0.22;;
38853;SDS011;24606;51.992;4.198;2022-08-06T04:26:44;0.75;;;0.20;;
38853;SDS011;24606;51.992;4.198;2022-08-06T04:31:51;0.40;;;0.20;;
38853;SDS011;24606;51.992;4.198;2022-08-06T04:36:54;0.50;;;0.20;;
38853;SDS011;24606;51.992;4.198;2022-08-06T04:41:57;0.50;;;0.20;;
38853;SDS011;24606;51.992;4.198;2022-08-06T04:47:00;2.40;;;0.75;;
38853;SDS011;24606;51.992;4.198;2022-08-06T04:52:04;3.05;;;0.70;;
38853;SDS011;24606;51.992;4.198;2022-08-06T04:57:06;1.80;;;0.28;;
38853;SDS011;24606;51.992;4.198;2022-08-06T05:02:09;0.30;;;0.20;;
38853;SDS011;24606;51.992;4.198;2022-08-06T05:07:13;0.73;;;0.28;;
38853;SDS011;24606;51.992;4.198;2022-08-06T05:12:21;2.33;;;0.50;;
38853;SDS011;24606;51.992;4.198;2022-08-06T05:17:29;1.20;;;0.20;;
38853;SDS011;24606;51.992;4.198;2022-08-06T05:22:36;1.10;;;0.45;;
38853;SDS011;24606;51.992;4.198;2022-08-06T05:27:39;0.52;;;0.25;;
38853;SDS011;24606;51.992;4.198;2022-08-06T05:32:43;2.80;;;0.32;;
38853;SDS011;24606;51.992;4.198;2022-08-06T05:37:46;0.60;;;0.30;;
38853;SDS011;24606;51.992;4.198;2022-08-06T05:42:48;0.50;;;0.20;;
38853;SDS011;24606;51.992;4.198;2022-08-06T05:47:51;0.93;;;0.28;;
38853;SDS011;24606;51.992;4.198;2022-08-06T05:52:56;1.77;;;0.30;;
38853;SDS011;24606;51.992;4.198;2022-08-06T05:58:04;0.20;;;0.20;;
38853;SDS011;24606;51.992;4.198;2022-08-06T06:03:12;0.30;;;0.20;;
38853;SDS011;24606;51.992;4.198;2022-08-06T06:08:15;1.08;;;0.30;;
38853;SDS011;24606;51.992;4.198;2022-08-06T06:13:18;1.20;;;0.40;;
38853;SDS011;24606;51.992;4.198;2022-08-06T06:18:25;0.60;;;0.22;;
38853;SDS011;24606;51.992;4.198;2022-08-06T06:23:38;0.70;;;0.28;;
38853;SDS011;24606;51.992;4.198;2022-08-06T06:28:46;0.40;;;0.25;;
38853;SDS011;24606;51.992;4.198;2022-08-06T06:33:59;1.10;;;0.28;;
38853;SDS011;24606;51.992;4.198;2022-08-06T06:39:08;0.25;;;0.20;;
38853;SDS011;24606;51.992;4.198;2022-08-06T06:44:16;1.30;;;0.30;;
38853;SDS011;24606;51.992;4.198;2022-08-06T06:49:24;2.15;;;0.40;;
38853;SDS011;24606;51.992;4.198;2022-08-06T06:54:31;4.95;;;0.35;;
38853;SDS011;24606;51.992;4.198;2022-08-06T06:59:37;1.50;;;0.20;;
38853;SDS011;24606;51.992;4.198;2022-08-06T07:04:44;1.27;;;0.30;;
38853;SDS011;24606;51.992;4.198;2022-08-06T07:09:48;3.53;;;0.47;;
38853;SDS011;24606;51.992;4.198;2022-08-06T07:14:52;1.63;;;0.22;;
38853;SDS011;24606;51.992;4.198;2022-08-06T07:19:57;1.95;;;0.65;;
38853;SDS011;24606;51.992;4.198;2022-08-06T07:25:02;0.70;;;0.40;;
38853;SDS011;24606;51.992;4.198;2022-08-06T07:30:07;1.25;;;0.30;;
38853;SDS011;24606;51.992;4.198;2022-08-06T07:35:12;3.45;;;0.40;;
38853;SDS011;24606;51.992;4.198;2022-08-06T07:40:16;1.45;;;0.43;;
38853;SDS011;24606;51.992;4.198;2022-08-06T07:45:23;5.05;;;0.40;;
38853;SDS011;24606;51.992;4.198;2022-08-06T07:50:30;0.80;;;0.20;;
38853;SDS011;24606;51.992;4.198;2022-08-06T07:55:33;1.40;;;0.50;;
38853;SDS011;24606;51.992;4.198;2022-08-06T08:00:36;3.33;;;0.40;;
38853;SDS011;24606;51.992;4.198;2022-08-06T08:05:41;0.93;;;0.20;;
38853;SDS011;24606;51.992;4.198;2022-08-06T08:11:02;2.22;;;0.40;;
38853;SDS011;24606;51.992;4.198;2022-08-06T08:16:04;1.45;;;0.60;;
38853;SDS011;24606;51.992;4.198;2022-08-06T08:21:10;2.95;;;0.38;;
38853;SDS011;24606;51.992;4.198;2022-08-06T08:26:13;3.60;;;0.30;;
38853;SDS011;24606;51.992;4.198;2022-08-06T08:31:15;2.55;;;0.40;;
38853;SDS011;24606;51.992;4.198;2022-08-06T08:36:18;1.75;;;0.40;;
38853;SDS011;24606;51.992;4.198;2022-08-06T08:41:22;1.75;;;0.38;;
38853;SDS011;24606;51.992;4.198;2022-08-06T08:46:26;0.95;;;0.25;;
38853;SDS011;24606;51.992;4.198;2022-08-06T08:51:32;1.90;;;0.20;;
38853;SDS011;24606;51.992;4.198;2022-08-06T08:56:36;1.77;;;0.40;;
38853;SDS011;24606;51.992;4.198;2022-08-06T09:01:38;1.02;;;0.30;;
38853;SDS011;24606;51.992;4.198;2022-08-06T09:06:43;0.30;;;0.10;;
38853;SDS011;24606;51.992;4.198;2022-08-06T09:11:45;1.42;;;0.20;;
38853;SDS011;24606;51.992;4.198;2022-08-06T09:16:49;0.75;;;0.20;;
38853;SDS011;24606;51.992;4.198;2022-08-06T09:21:52;2.42;;;0.47;;
38853;SDS011;24606;51.992;4.198;2022-08-06T09:27:01;0.45;;;0.30;;
38853;SDS011;24606;51.992;4.198;2022-08-06T09:32:05;1.45;;;0.20;;
38853;SDS011;24606;51.992;4.198;2022-08-06T09:37:11;1.08;;;0.43;;
38853;SDS011;24606;51.992;4.198;2022-08-06T09:42:13;0.93;;;0.20;;
38853;SDS011;24606;51.992;4.198;2022-08-06T09:47:19;0.85;;;0.20;;
38853;SDS011;24606;51.992;4.198;2022-08-06T09:52:23;0.80;;;0.20;;
38853;SDS011;24606;51.992;4.198;2022-08-06T09:57:25;0.88;;;0.20;;
38853;SDS011;24606;51.992;4.198;2022-08-06T10:02:32;0.35;;;0.20;;
38853;SDS011;24606;51.992;4.198;2022-08-06T10:07:35;1.00;;;0.20;;
38853;SDS011;24606;51.992;4.198;2022-08-06T10:12:37;0.60;;;0.20;;
38853;SDS011;24606;51.992;4.198;2022-08-06T10:17:44;2.90;;;0.28;;
38853;SDS011;24606;51.992;4.198;2022-08-06T10:22:51;1.17;;;0.28;;
38853;SDS011;24606;51.992;4.198;2022-08-06T10:27:57;1.02;;;0.35;;
38853;SDS011;24606;51.992;4.198;2022-08-06T10:33:02;0.22;;;0.10;;
38853;SDS011;24606;51.992;4.198;2022-08-06T10:38:07;1.33;;;0.30;;
38853;SDS011;24606;51.992;4.198;2022-08-06T10:43:15;1.92;;;0.30;;
38853;SDS011;24606;51.992;4.198;2022-08-06T10:48:17;0.80;;;0.15;;
38853;SDS011;24606;51.992;4.198;2022-08-06T10:53:21;1.15;;;0.50;;
38853;SDS011;24606;51.992;4.198;2022-08-06T10:58:23;2.00;;;0.20;;
38853;SDS011;24606;51.992;4.198;2022-08-06T11:03:29;1.17;;;0.30;;
38853;SDS011;24606;51.992;4.198;2022-08-06T11:08:42;1.48;;;0.20;;
38853;SDS011;24606;51.992;4.198;2022-08-06T11:13:56;2.45;;;0.22;;
38853;SDS011;24606;51.992;4.198;2022-08-06T11:19:03;0.82;;;0.13;;
38853;SDS011;24606;51.992;4.198;2022-08-06T11:24:08;1.02;;;0.40;;
38853;SDS011;24606;51.992;4.198;2022-08-06T11:29:12;4.28;;;0.82;;
38853;SDS011;24606;51.992;4.198;2022-08-06T11:34:16;5.72;;;2.13;;
38853;SDS011;24606;51.992;4.198;2022-08-06T11:39:22;8.00;;;2.42;;
38853;SDS011;24606;51.992;4.198;2022-08-06T11:44:26;3.78;;;1.80;;
38853;SDS011;24606;51.992;4.198;2022-08-06T11:49:34;5.05;;;1.88;;
38853;SDS011;24606;51.992;4.198;2022-08-06T12:00:04;1.83;;;0.28;;
38853;SDS011;24606;51.992;4.198;2022-08-06T12:05:37;1.90;;;0.68;;
38853;SDS011;24606;51.992;4.198;2022-08-06T12:16:37;1.60;;;0.40;;
38853;SDS011;24606;51.992;4.198;2022-08-06T12:21:40;1.60;;;0.32;;
38853;SDS011;24606;51.992;4.198;2022-08-06T12:26:43;1.17;;;0.40;;
38853;SDS011;24606;51.992;4.198;2022-08-06T12:31:46;3.00;;;0.60;;
38853;SDS011;24606;51.992;4.198;2022-08-06T12:36:48;4.78;;;0.43;;
38853;SDS011;24606;51.992;4.198;2022-08-06T12:41:50;0.68;;;0.20;;
38853;SDS011;24606;51.992;4.198;2022-08-06T12:46:53;1.70;;;0.60;;
38853;SDS011;24606;51.992;4.198;2022-08-06T12:52:10;0.93;;;0.30;;
38853;SDS011;24606;51.992;4.198;2022-08-06T12:57:18;2.85;;;0.60;;
38853;SDS011;24606;51.992;4.198;2022-08-06T13:02:23;2.00;;;0.45;;
38853;SDS011;24606;51.992;4.198;2022-08-06T13:07:27;1.38;;;0.40;;
38853;SDS011;24606;51.992;4.198;2022-08-06T13:12:29;1.17;;;0.30;;
38853;SDS011;24606;51.992;4.198;2022-08-06T13:17:32;1.02;;;0.20;;
38853;SDS011;24606;51.992;4.198;2022-08-06T13:22:47;0.60;;;0.38;;
38853;SDS011;24606;51.992;4.198;2022-08-06T13:27:49;1.08;;;0.40;;
38853;SDS011;24606;51.992;4.198;2022-08-06T13:32:53;2.53;;;0.82;;
38853;SDS011;24606;51.992;4.198;2022-08-06T13:37:55;1.83;;;0.60;;
38853;SDS011;24606;51.992;4.198;2022-08-06T13:42:56;1.38;;;0.50;;
38853;SDS011;24606;51.992;4.198;2022-08-06T13:48:03;2.13;;;0.80;;
38853;SDS011;24606;51.992;4.198;2022-08-06T13:53:06;1.00;;;0.40;;
38853;SDS011;24606;51.992;4.198;2022-08-06T13:58:09;0.80;;;0.57;;
38853;SDS011;24606;51.992;4.198;2022-08-06T14:03:12;1.80;;;0.60;;
38853;SDS011;24606;51.992;4.198;2022-08-06T14:08:14;4.03;;;0.75;;
38853;SDS011;24606;51.992;4.198;2022-08-06T14:13:16;0.98;;;0.50;;
38853;SDS011;24606;51.992;4.198;2022-08-06T14:18:20;0.90;;;0.85;;
38853;SDS011;24606;51.992;4.198;2022-08-06T14:23:22;0.88;;;0.30;;
38853;SDS011;24606;51.992;4.198;2022-08-06T14:28:24;3.47;;;0.77;;
38853;SDS011;24606;51.992;4.198;2022-08-06T14:33:28;0.93;;;0.60;;
38853;SDS011;24606;51.992;4.198;2022-08-06T14:38:29;1.52;;;0.70;;
38853;SDS011;24606;51.992;4.198;2022-08-06T14:43:31;1.20;;;0.75;;
38853;SDS011;24606;51.992;4.198;2022-08-06T14:48:52;0.75;;;0.50;;
38853;SDS011;24606;51.992;4.198;2022-08-06T14:53:54;0.77;;;0.50;;
38853;SDS011;24606;51.992;4.198;2022-08-06T14:58:56;1.08;;;0.50;;
38853;SDS011;24606;51.992;4.198;2022-08-06T15:03:59;1.05;;;0.50;;
38853;SDS011;24606;51.992;4.198;2022-08-06T15:09:01;1.02;;;0.50;;
38853;SDS011;24606;51.992;4.198;2022-08-06T15:14:03;2.30;;;0.60;;
38853;SDS011;24606;51.992;4.198;2022-08-06T15:19:07;3.50;;;0.73;;
38853;SDS011;24606;51.992;4.198;2022-08-06T15:24:09;1.17;;;0.65;;
38853;SDS011;24606;51.992;4.198;2022-08-06T15:29:11;1.75;;;1.00;;
38853;SDS011;24606;51.992;4.198;2022-08-06T15:34:15;0.80;;;0.52;;
38853;SDS011;24606;51.992;4.198;2022-08-06T15:39:17;0.55;;;0.52;;
38853;SDS011;24606;51.992;4.198;2022-08-06T15:44:19;2.40;;;0.50;;
38853;SDS011;24606;51.992;4.198;2022-08-06T15:49:22;1.10;;;0.60;;
38853;SDS011;24606;51.992;4.198;2022-08-06T15:54:24;1.35;;;0.60;;
38853;SDS011;24606;51.992;4.198;2022-08-06T15:59:26;1.50;;;0.55;;
38853;SDS011;24606;51.992;4.198;2022-08-06T16:04:29;4.10;;;0.98;;
38853;SDS011;24606;51.992;4.198;2022-08-06T16:09:32;1.80;;;0.80;;
38853;SDS011;24606;51.992;4.198;2022-08-06T16:14:34;3.60;;;1.73;;
38853;SDS011;24606;51.992;4.198;2022-08-06T16:19:37;9.30;;;2.75;;
38853;SDS011;24606;51.992;4.198;2022-08-06T16:24:39;5.75;;;3.17;;
38853;SDS011;24606;51.992;4.198;2022-08-06T16:29:41;9.23;;;3.22;;
38853;SDS011;24606;51.992;4.198;2022-08-06T16:34:44;10.38;;;4.38;;
38853;SDS011;24606;51.992;4.198;2022-08-06T16:39:46;8.52;;;3.85;;
38853;SDS011;24606;51.992;4.198;2022-08-06T16:44:48;9.13;;;3.10;;
38853;SDS011;24606;51.992;4.198;2022-08-06T16:49:51;10.50;;;3.50;;
38853;SDS011;24606;51.992;4.198;2022-08-06T16:54:54;9.88;;;4.57;;
38853;SDS011;24606;51.992;4.198;2022-08-06T16:59:56;14.65;;;6.10;;
38853;SDS011;24606;51.992;4.198;2022-08-06T17:04:59;23.92;;;8.13;;
38853;SDS011;24606;51.992;4.198;2022-08-06T17:10:02;12.70;;;5.53;;
38853;SDS011;24606;51.992;4.198;2022-08-06T17:15:05;15.60;;;5.80;;
38853;SDS011;24606;51.992;4.198;2022-08-06T17:20:09;9.15;;;4.28;;
38853;SDS011;24606;51.992;4.198;2022-08-06T17:25:11;6.72;;;3.45;;
38853;SDS011;24606;51.992;4.198;2022-08-06T17:30:14;6.85;;;2.65;;
38853;SDS011;24606;51.992;4.198;2022-08-06T17:35:18;6.20;;;2.50;;
38853;SDS011;24606;51.992;4.198;2022-08-06T17:40:20;4.82;;;2.38;;
38853;SDS011;24606;51.992;4.198;2022-08-06T17:45:25;4.88;;;1.77;;
38853;SDS011;24606;51.992;4.198;2022-08-06T17:50:28;2.00;;;1.35;;
38853;SDS011;24606;51.992;4.198;2022-08-06T17:55:30;2.63;;;1.30;;
38853;SDS011;24606;51.992;4.198;2022-08-06T18:00:32;3.75;;;1.10;;
38853;SDS011;24606;51.992;4.198;2022-08-06T18:05:35;3.08;;;1.25;;
38853;SDS011;24606;51.992;4.198;2022-08-06T18:10:37;5.30;;;1.13;;
38853;SDS011;24606;51.992;4.198;2022-08-06T18:15:39;4.30;;;1.02;;
38853;SDS011;24606;51.992;4.198;2022-08-06T18:20:42;1.45;;;0.75;;
38853;SDS011;24606;51.992;4.198;2022-08-06T18:25:44;2.28;;;0.90;;
38853;SDS011;24606;51.992;4.198;2022-08-06T18:30:46;1.45;;;0.90;;
38853;SDS011;24606;51.992;4.198;2022-08-06T18:35:49;1.95;;;0.85;;
38853;SDS011;24606;51.992;4.198;2022-08-06T18:40:51;2.90;;;0.90;;
38853;SDS011;24606;51.992;4.198;2022-08-06T18:45:53;4.53;;;0.85;;
38853;SDS011;24606;51.992;4.198;2022-08-06T18:50:57;1.90;;;0.80;;
38853;SDS011;24606;51.992;4.198;2022-08-06T18:55:59;1.98;;;0.90;;
38853;SDS011;24606;51.992;4.198;2022-08-06T19:01:01;1.65;;;1.30;;
38853;SDS011;24606;51.992;4.198;2022-08-06T19:06:05;4.65;;;2.67;;
38853;SDS011;24606;51.992;4.198;2022-08-06T19:11:07;11.95;;;3.95;;
38853;SDS011;24606;51.992;4.198;2022-08-06T19:16:09;6.90;;;3.97;;
38853;SDS011;24606;51.992;4.198;2022-08-06T19:21:12;6.00;;;4.30;;
38853;SDS011;24606;51.992;4.198;2022-08-06T19:26:14;6.78;;;4.20;;
38853;SDS011;24606;51.992;4.198;2022-08-06T19:31:15;6.25;;;3.80;;
38853;SDS011;24606;51.992;4.198;2022-08-06T19:36:21;7.78;;;3.72;;
38853;SDS011;24606;51.992;4.198;2022-08-06T19:41:23;8.82;;;4.18;;
38853;SDS011;24606;51.992;4.198;2022-08-06T19:46:26;9.55;;;3.63;;
38853;SDS011;24606;51.992;4.198;2022-08-06T19:51:30;8.50;;;4.18;;
38853;SDS011;24606;51.992;4.198;2022-08-06T19:56:32;6.38;;;3.38;;
38853;SDS011;24606;51.992;4.198;2022-08-06T20:01:35;9.07;;;3.60;;
38853;SDS011;24606;51.992;4.198;2022-08-06T20:06:38;5.68;;;2.80;;
38853;SDS011;24606;51.992;4.198;2022-08-06T20:11:40;9.35;;;3.10;;
38853;SDS011;24606;51.992;4.198;2022-08-06T20:16:42;5.25;;;2.88;;
38853;SDS011;24606;51.992;4.198;2022-08-06T20:21:45;4.72;;;2.90;;
38853;SDS011;24606;51.992;4.198;2022-08-06T20:26:47;8.95;;;2.40;;
38853;SDS011;24606;51.992;4.198;2022-08-06T20:31:49;4.70;;;2.25;;
38853;SDS011;24606;51.992;4.198;2022-08-06T20:36:53;9.63;;;2.40;;
38853;SDS011;24606;51.992;4.198;2022-08-06T20:41:55;2.97;;;1.50;;
38853;SDS011;24606;51.992;4.198;2022-08-06T20:46:57;2.92;;;1.48;;
38853;SDS011;24606;51.992;4.198;2022-08-06T20:52:00;2.60;;;1.70;;
38853;SDS011;24606;51.992;4.198;2022-08-06T20:57:03;5.50;;;1.67;;
38853;SDS011;24606;51.992;4.198;2022-08-06T21:02:05;4.53;;;1.40;;
38853;SDS011;24606;51.992;4.198;2022-08-06T21:07:08;6.55;;;1.20;;
38853;SDS011;24606;51.992;4.198;2022-08-06T21:12:11;1.77;;;1.20;;
38853;SDS011;24606;51.992;4.198;2022-08-06T21:17:14;4.40;;;1.42;;
38853;SDS011;24606;51.992;4.198;2022-08-06T21:22:17;3.33;;;1.33;;
38853;SDS011;24606;51.992;4.198;2022-08-06T21:27:19;1.77;;;1.10;;
38853;SDS011;24606;51.992;4.198;2022-08-06T21:32:21;4.28;;;1.42;;
38853;SDS011;24606;51.992;4.198;2022-08-06T21:37:24;1.92;;;1.00;;
38853;SDS011;24606;51.992;4.198;2022-08-06T21:42:26;3.05;;;0.70;;
38853;SDS011;24606;51.992;4.198;2022-08-06T21:47:28;3.38;;;1.00;;
38853;SDS011;24606;51.992;4.198;2022-08-06T21:52:31;1.90;;;1.02;;
38853;SDS011;24606;51.992;4.198;2022-08-06T21:57:34;1.08;;;0.80;;
38853;SDS011;24606;51.992;4.198;2022-08-06T22:02:36;1.58;;;0.82;;
38853;SDS011;24606;51.992;4.198;2022-08-06T22:07:40;1.55;;;0.98;;
38853;SDS011;24606;51.992;4.198;2022-08-06T22:12:42;1.23;;;0.90;;
38853;SDS011;24606;51.992;4.198;2022-08-06T22:17:44;2.60;;;1.40;;
38853;SDS011;24606;51.992;4.198;2022-08-06T22:22:47;2.00;;;0.93;;
38853;SDS011;24606;51.992;4.198;2022-08-06T22:27:50;2.70;;;1.23;;
38853;SDS011;24606;51.992;4.198;2022-08-06T22:32:52;9.15;;;2.47;;
38853;SDS011;24606;51.992;4.198;2022-08-06T22:37:56;3.53;;;1.50;;
38853;SDS011;24606;51.992;4.198;2022-08-06T22:42:58;1.67;;;1.23;;
38853;SDS011;24606;51.992;4.198;2022-08-06T22:48:01;2.40;;;1.30;;
38853;SDS011;24606;51.992;4.198;2022-08-06T22:53:04;2.65;;;1.40;;
38853;SDS011;24606;51.992;4.198;2022-08-06T22:58:07;1.75;;;1.33;;
38853;SDS011;24606;51.992;4.198;2022-08-06T23:03:09;2.13;;;1.40;;
38853;SDS011;24606;51.992;4.198;2022-08-06T23:08:12;2.35;;;1.50;;
38853;SDS011;24606;51.992;4.198;2022-08-06T23:13:14;2.38;;;1.25;;
38853;SDS011;24606;51.992;4.198;2022-08-06T23:18:17;3.90;;;2.00;;
38853;SDS011;24606;51.992;4.198;2022-08-06T23:23:20;3.00;;;1.85;;
38853;SDS011;24606;51.992;4.198;2022-08-06T23:28:22;1.75;;;1.45;;
38853;SDS011;24606;51.992;4.198;2022-08-06T23:33:24;2.95;;;1.70;;
38853;SDS011;24606;51.992;4.198;2022-08-06T23:38:27;2.47;;;1.60;;
38853;SDS011;24606;51.992;4.198;2022-08-06T23:43:29;2.67;;;1.73;;
38853;SDS011;24606;51.992;4.198;2022-08-06T23:48:31;4.03;;;1.60;;
38853;SDS011;24606;51.992;4.198;2022-08-06T23:53:34;3.45;;;1.40;;
38853;SDS011;24606;51.992;4.198;2022-08-06T23:58:37;2.03;;;1.40;;
